createdAt,value
2019-05-20T00:02:24.438Z,17.20
2019-05-20T00:07:42.830Z,16.80
2019-05-20T00:10:22.041Z,16.60
2019-05-20T00:13:01.378Z,16.50
2019-05-20T00:18:24.236Z,16.60
2019-05-20T00:21:03.726Z,16.50
2019-05-20T00:23:43.148Z,16.60
2019-05-20T00:26:23.160Z,16.60
2019-05-20T00:29:02.923Z,16.60
2019-05-20T00:31:42.866Z,16.50
2019-05-20T00:34:34.686Z,16.50
2019-05-20T00:37:08.837Z,16.50
2019-05-20T00:39:48.806Z,16.60
2019-05-20T00:42:28.990Z,16.70
2019-05-20T00:45:10.424Z,16.50
2019-05-20T00:47:37.631Z,16.30
2019-05-20T00:50:23.858Z,16.20
2019-05-20T00:53:07.482Z,16.20
2019-05-20T00:55:48.975Z,16.20
2019-05-20T00:58:29.418Z,16.20
2019-05-20T01:01:14.022Z,16.30
2019-05-20T01:03:58.791Z,16.20
2019-05-20T01:06:39.073Z,16.20
2019-05-20T01:09:18.495Z,16.20
2019-05-20T01:11:58.400Z,16.30
2019-05-20T01:14:38.396Z,16.40
2019-05-20T01:20:03.785Z,16.30
2019-05-20T01:25:26.881Z,16.10
2019-05-20T01:28:05.811Z,16.00
2019-05-20T01:30:49.471Z,16.10
2019-05-20T01:36:12.910Z,15.90
2019-05-20T01:41:39.007Z,15.40
2019-05-20T01:44:19.033Z,15.30
2019-05-20T01:46:58.748Z,15.30
2019-05-20T01:49:40.336Z,15.20
2019-05-20T01:52:20.849Z,15.20
2019-05-20T01:54:46.935Z,15.10
2019-05-20T01:57:32.801Z,15.10
2019-05-20T02:00:13.857Z,15.10
2019-05-20T02:02:53.691Z,15.20
2019-05-20T02:05:33.656Z,15.30
2019-05-20T02:10:56.990Z,15.30
2019-05-20T02:13:55.810Z,15.30
2019-05-20T02:16:24.684Z,15.40
2019-05-20T02:19:04.080Z,15.40
2019-05-20T02:24:23.771Z,15.60
2019-05-20T02:27:09.778Z,15.70
2019-05-20T02:29:50.634Z,15.60
2019-05-20T02:32:29.806Z,15.50
2019-05-20T02:35:11.385Z,15.40
2019-05-20T02:37:50.605Z,15.40
2019-05-20T02:40:30.571Z,15.30
2019-05-20T02:43:11.185Z,15.30
2019-05-20T02:48:34.624Z,15.20
2019-05-20T02:51:13.766Z,15.20
2019-05-20T02:53:55.508Z,15.20
2019-05-20T02:56:34.494Z,15.20
2019-05-20T02:59:14.501Z,15.20
2019-05-20T03:01:54.289Z,15.10
2019-05-20T03:04:33.239Z,15.20
2019-05-20T03:09:45.803Z,15.40
2019-05-20T03:12:31.713Z,15.50
2019-05-20T03:15:17.694Z,15.40
2019-05-20T03:17:58.319Z,15.40
2019-05-20T03:20:38.316Z,15.40
2019-05-20T03:26:07.332Z,15.40
2019-05-20T03:28:47.249Z,15.40
2019-05-20T03:31:27.762Z,15.50
2019-05-20T03:34:09.409Z,15.40
2019-05-20T03:36:49.362Z,15.30
2019-05-20T03:39:29.899Z,15.30
2019-05-20T03:42:10.083Z,15.20
2019-05-20T03:44:50.084Z,15.30
2019-05-20T03:47:30.051Z,15.40
2019-05-20T03:50:09.812Z,15.30
2019-05-20T03:55:34.847Z,15.40
2019-05-20T03:58:14.820Z,15.40
2019-05-20T04:00:54.693Z,15.30
2019-05-20T04:03:34.747Z,15.30
2019-05-20T04:06:15.905Z,15.30
2019-05-20T04:08:57.693Z,15.40
2019-05-20T04:14:19.595Z,15.50
2019-05-20T04:16:58.747Z,15.60
2019-05-20T04:19:38.199Z,15.60
2019-05-20T04:22:18.048Z,15.50
2019-05-20T04:24:57.951Z,15.50
2019-05-20T04:27:36.929Z,15.50
2019-05-20T04:30:22.425Z,15.60
2019-05-20T04:33:02.014Z,15.50
2019-05-20T04:35:49.533Z,15.50
2019-05-20T04:38:28.191Z,15.60
2019-05-20T04:41:07.872Z,15.60
2019-05-20T04:43:48.368Z,15.50
2019-05-20T04:46:28.020Z,15.60
2019-05-20T04:49:07.625Z,15.70
2019-05-20T04:51:51.349Z,15.70
2019-05-20T04:54:31.504Z,15.70
2019-05-20T04:59:56.120Z,15.80
2019-05-20T05:02:36.245Z,15.80
2019-05-20T05:05:16.552Z,15.80
2019-05-20T05:07:56.677Z,15.80
2019-05-20T05:10:36.951Z,15.80
2019-05-20T05:16:01.081Z,15.90
2019-05-20T05:21:30.057Z,15.80
2019-05-20T05:27:01.372Z,16.00
2019-05-20T05:29:41.455Z,15.60
2019-05-20T05:32:23.294Z,15.40
2019-05-20T05:40:36.341Z,15.20
2019-05-20T05:43:18.197Z,15.30
2019-05-20T05:45:58.702Z,15.30
2019-05-20T05:48:38.914Z,15.50
2019-05-20T05:54:02.860Z,15.80
2019-05-20T05:59:26.222Z,15.90
2019-05-20T06:04:50.983Z,15.80
2019-05-20T06:07:30.541Z,15.80
2019-05-20T06:10:10.843Z,15.70
2019-05-20T06:12:54.172Z,15.70
2019-05-20T06:18:25.435Z,15.80
2019-05-20T06:23:52.369Z,15.80
2019-05-20T06:26:35.527Z,15.90
2019-05-20T06:29:18.705Z,16.10
2019-05-20T06:31:58.108Z,16.20
2019-05-20T06:34:41.752Z,16.10
2019-05-20T06:43:06.567Z,16.00
2019-05-20T06:45:46.525Z,16.20
2019-05-20T06:48:26.132Z,16.40
2019-05-20T06:53:58.276Z,16.50
2019-05-20T06:56:38.108Z,16.60
2019-05-20T06:59:22.276Z,16.70
2019-05-20T07:02:02.870Z,16.70
2019-05-20T07:04:43.204Z,16.70
2019-05-20T07:07:24.783Z,16.80
2019-05-20T07:10:04.736Z,16.90
2019-05-20T07:15:16.816Z,17.00
2019-05-20T07:21:10.197Z,17.10
2019-05-20T07:23:52.408Z,17.20
2019-05-20T07:26:35.809Z,17.30
2019-05-20T07:29:14.915Z,17.30
2019-05-20T07:31:54.775Z,17.50
2019-05-20T07:34:34.842Z,17.60
2019-05-20T07:37:17.126Z,17.70
2019-05-20T07:39:58.249Z,17.80
2019-05-20T07:42:37.692Z,17.80
2019-05-20T07:45:17.534Z,18.00
2019-05-20T07:47:57.530Z,18.00
2019-05-20T07:50:38.101Z,18.10
2019-05-20T07:53:18.107Z,18.10
2019-05-20T07:55:57.167Z,18.20
2019-05-20T07:58:36.220Z,18.20
2019-05-20T08:01:16.319Z,18.30
2019-05-20T08:03:56.517Z,18.40
2019-05-20T08:06:36.015Z,18.40
2019-05-20T08:11:59.972Z,18.20
2019-05-20T08:17:24.206Z,17.80
2019-05-20T08:20:03.904Z,17.90
2019-05-20T08:25:33.884Z,18.10
2019-05-20T08:28:15.048Z,18.10
2019-05-20T08:30:54.023Z,18.30
2019-05-20T08:33:34.737Z,18.20
2019-05-20T08:36:14.358Z,18.40
2019-05-20T08:38:56.372Z,18.50
2019-05-20T08:41:38.529Z,18.60
2019-05-20T08:44:19.119Z,18.60
2019-05-20T08:46:59.021Z,18.70
2019-05-20T08:49:39.064Z,19.10
2019-05-20T08:52:19.799Z,19.10
2019-05-20T08:55:01.023Z,19.20
2019-05-20T08:57:40.798Z,19.30
2019-05-20T09:00:23.781Z,19.50
2019-05-20T09:03:02.823Z,19.40
2019-05-20T09:05:41.816Z,19.20
2019-05-20T09:08:22.374Z,19.30
2019-05-20T09:11:03.162Z,19.20
2019-05-20T09:13:44.332Z,19.30
2019-05-20T09:16:25.281Z,19.50
2019-05-20T09:19:06.729Z,19.50
2019-05-20T09:21:46.216Z,19.60
2019-05-20T09:24:27.455Z,19.70
2019-05-20T09:27:06.710Z,19.90
2019-05-20T09:32:45.967Z,20.10
2019-05-20T09:35:26.972Z,20.10
2019-05-20T09:38:19.439Z,20.10
2019-05-20T09:40:48.111Z,20.10
2019-05-20T09:46:14.598Z,20.20
2019-05-20T09:48:54.291Z,20.20
2019-05-20T09:51:33.339Z,20.20
2019-05-20T09:54:15.609Z,20.20
2019-05-20T09:56:57.641Z,20.30
2019-05-20T10:05:14.860Z,20.70
2019-05-20T10:07:56.516Z,20.60
2019-05-20T10:16:08.636Z,20.30
2019-05-20T10:21:31.317Z,20.30
2019-05-20T10:26:56.752Z,20.40
2019-05-20T10:29:37.884Z,20.50
2019-05-20T10:32:21.474Z,20.40
2019-05-20T10:35:04.854Z,20.40
2019-05-20T10:37:44.682Z,20.30
2019-05-20T10:43:15.413Z,19.70
2019-05-20T10:45:55.528Z,19.50
2019-05-20T10:51:20.103Z,19.30
2019-05-20T10:54:01.634Z,19.20
2019-05-20T10:56:40.675Z,19.10
2019-05-20T10:59:19.935Z,19.10
2019-05-20T11:01:59.805Z,19.20
2019-05-20T11:10:13.772Z,18.90
2019-05-20T11:12:53.694Z,18.90
2019-05-20T11:15:33.593Z,19.00
2019-05-20T11:18:13.533Z,19.00
2019-05-20T11:20:52.582Z,19.10
2019-05-20T11:23:32.516Z,19.20
2019-05-20T11:26:11.745Z,19.20
2019-05-20T11:28:52.807Z,19.10
2019-05-20T11:31:32.673Z,19.20
2019-05-20T11:34:12.483Z,19.10
2019-05-20T11:36:53.194Z,19.10
2019-05-20T11:42:17.555Z,19.10
2019-05-20T11:47:48.523Z,19.20
2019-05-20T11:50:29.984Z,19.20
2019-05-20T11:53:09.958Z,19.10
2019-05-20T11:55:50.146Z,19.20
2019-05-20T11:58:30.476Z,19.30
2019-05-20T12:01:10.562Z,19.20
2019-05-20T12:03:50.008Z,19.10
2019-05-20T12:06:29.923Z,19.00
2019-05-20T12:09:12.592Z,19.00
2019-05-20T12:14:39.847Z,19.00
2019-05-20T12:17:20.052Z,19.00
2019-05-20T12:20:04.784Z,19.00
2019-05-20T12:22:48.872Z,19.10
2019-05-20T12:25:31.943Z,19.00
2019-05-20T12:31:15.985Z,18.80
2019-05-20T12:39:42.540Z,18.70
2019-05-20T12:42:23.411Z,18.80
2019-05-20T12:45:02.429Z,18.80
2019-05-20T12:47:43.314Z,19.00
2019-05-20T12:50:12.281Z,18.90
2019-05-20T12:53:18.119Z,18.80
2019-05-20T12:56:05.069Z,18.70
2019-05-20T12:58:45.533Z,18.70
2019-05-20T13:01:27.527Z,18.50
2019-05-20T13:04:07.254Z,18.50
2019-05-20T13:06:47.197Z,18.50
2019-05-20T13:09:27.277Z,18.30
2019-05-20T13:12:07.080Z,18.10
2019-05-20T13:14:50.076Z,18.10
2019-05-20T13:17:29.348Z,18.20
2019-05-20T13:20:11.392Z,18.30
2019-05-20T13:25:34.079Z,18.20
2019-05-20T13:28:13.856Z,18.30
2019-05-20T13:30:53.223Z,18.20
2019-05-20T13:33:33.229Z,18.20
2019-05-20T13:36:13.028Z,18.20
2019-05-20T13:38:52.408Z,18.00
2019-05-20T13:41:32.250Z,17.80
2019-05-20T13:49:43.466Z,17.50
2019-05-20T13:52:24.526Z,17.30
2019-05-20T14:00:43.900Z,16.90
2019-05-20T14:09:00.135Z,16.90
2019-05-20T14:11:46.397Z,16.90
2019-05-20T14:14:32.645Z,16.80
2019-05-20T14:22:46.419Z,16.60
2019-05-20T14:25:32.534Z,16.80
2019-05-20T14:28:21.582Z,16.70
2019-05-20T14:31:05.632Z,16.70
2019-05-20T14:33:28.983Z,16.60
2019-05-20T14:36:37.927Z,16.60
2019-05-20T14:41:54.983Z,16.70
2019-05-20T14:47:23.220Z,16.70
2019-05-20T14:52:51.704Z,16.50
2019-05-20T14:55:41.860Z,16.60
2019-05-20T15:00:58.998Z,16.40
2019-05-20T15:09:16.649Z,16.50
2019-05-20T15:14:47.783Z,16.50
2019-05-20T15:20:15.100Z,16.50
2019-05-20T15:22:55.934Z,16.60
2019-05-20T15:28:23.530Z,16.50
2019-05-20T15:30:49.739Z,16.50
2019-05-20T15:33:35.701Z,16.60
2019-05-20T15:36:21.732Z,16.70
2019-05-20T15:39:02.268Z,16.60
2019-05-20T15:41:46.242Z,16.60
2019-05-20T15:44:27.745Z,16.60
2019-05-20T15:47:08.854Z,16.60
2019-05-20T15:49:34.927Z,16.60
2019-05-20T15:52:20.893Z,16.50
2019-05-20T15:54:47.109Z,16.40
2019-05-20T15:57:33.027Z,16.40
2019-05-20T16:05:52.566Z,16.60
2019-05-20T16:08:32.785Z,16.60
2019-05-20T16:11:14.808Z,16.50
2019-05-20T16:13:58.773Z,16.50
2019-05-20T16:16:38.686Z,16.50
2019-05-20T16:19:17.669Z,16.30
2019-05-20T16:30:35.622Z,16.40
2019-05-20T16:36:00.686Z,16.70
2019-05-20T16:38:42.460Z,16.80
2019-05-20T16:41:21.779Z,16.80
2019-05-20T16:44:01.016Z,16.80
2019-05-20T16:46:42.546Z,16.70
2019-05-20T16:49:24.472Z,16.70
2019-05-20T16:52:07.500Z,16.70
2019-05-20T16:54:47.518Z,16.70
2019-05-20T16:57:26.912Z,16.60
2019-05-20T17:00:30.549Z,16.60
2019-05-20T17:02:58.419Z,16.50
2019-05-20T17:05:38.842Z,16.60
2019-05-20T17:08:19.756Z,16.60
2019-05-20T17:11:00.789Z,16.70
2019-05-20T17:19:10.889Z,16.70
2019-05-20T17:21:52.593Z,16.80
2019-05-20T17:24:33.873Z,16.90
2019-05-20T17:27:13.475Z,16.90
2019-05-20T17:29:53.247Z,16.80
2019-05-20T17:32:33.171Z,16.80
2019-05-20T17:35:14.179Z,16.80
2019-05-20T17:37:55.545Z,16.70
2019-05-20T17:43:25.681Z,16.60
2019-05-20T17:45:51.820Z,16.50
2019-05-20T17:51:54.042Z,16.50
2019-05-20T17:57:17.665Z,16.50
2019-05-20T18:06:20.711Z,16.40
2019-05-20T18:09:01.028Z,16.40
2019-05-20T18:11:41.512Z,16.40
2019-05-20T18:14:20.867Z,16.40
2019-05-20T18:17:03.781Z,16.30
2019-05-20T18:22:32.279Z,16.10
2019-05-20T18:25:12.806Z,16.20
2019-05-20T18:27:54.000Z,16.20
2019-05-20T18:30:34.069Z,16.10
2019-05-20T18:33:14.702Z,16.10
2019-05-20T18:35:53.859Z,16.10
2019-05-20T18:41:17.804Z,16.10
2019-05-20T18:46:42.782Z,15.90
2019-05-20T18:52:10.316Z,15.90
2019-05-20T18:57:39.769Z,15.70
2019-05-20T19:00:21.270Z,15.70
2019-05-20T19:03:01.737Z,15.70
2019-05-20T19:05:41.600Z,15.70
2019-05-20T19:08:25.617Z,15.70
2019-05-20T19:16:50.323Z,15.70
2019-05-20T19:19:30.222Z,15.60
2019-05-20T19:24:56.171Z,15.60
2019-05-20T19:27:36.834Z,15.60
2019-05-20T19:33:02.359Z,15.60
2019-05-20T19:35:44.414Z,15.50
2019-05-20T19:38:23.924Z,15.50
2019-05-20T19:41:06.649Z,15.50
2019-05-20T19:46:33.507Z,15.50
2019-05-20T19:54:43.679Z,15.50
2019-05-20T19:57:27.417Z,15.40
2019-05-20T20:02:55.855Z,15.60
2019-05-20T20:05:22.945Z,15.50
2019-05-20T20:13:41.906Z,15.60
2019-05-20T20:16:28.159Z,15.60
2019-05-20T20:19:08.402Z,15.60
2019-05-20T20:21:52.102Z,15.60
2019-05-20T20:24:31.975Z,15.60
2019-05-20T20:30:00.957Z,15.50
2019-05-20T20:32:40.938Z,15.40
2019-05-20T20:35:21.776Z,15.40
2019-05-20T20:38:02.454Z,15.50
2019-05-20T20:40:43.886Z,15.40
2019-05-20T20:43:25.396Z,15.30
2019-05-20T20:46:05.535Z,15.30
2019-05-20T20:48:51.482Z,15.30
2019-05-20T20:51:38.725Z,15.30
2019-05-20T20:54:25.743Z,15.30
2019-05-20T20:57:05.495Z,15.30
2019-05-20T20:59:46.063Z,15.30
2019-05-20T21:08:09.986Z,15.30
2019-05-20T21:10:49.692Z,15.30
2019-05-20T21:16:18.621Z,15.30
2019-05-20T21:19:00.791Z,15.30
2019-05-20T21:21:40.555Z,15.30
2019-05-20T21:24:20.254Z,15.30
2019-05-20T21:27:01.490Z,15.30
2019-05-20T21:29:41.377Z,15.20
2019-05-20T21:32:21.430Z,15.20
2019-05-20T21:35:01.235Z,15.20
2019-05-20T21:37:41.337Z,15.10
2019-05-20T21:40:21.347Z,15.20
2019-05-20T21:45:49.403Z,15.30
2019-05-20T21:48:28.365Z,15.20
2019-05-20T21:51:07.439Z,15.30
2019-05-20T21:53:46.498Z,15.30
2019-05-20T21:56:28.510Z,15.20
2019-05-20T21:59:08.523Z,15.20
2019-05-20T22:01:37.617Z,15.20
2019-05-20T22:04:46.048Z,15.20
2019-05-20T22:07:32.439Z,15.30
2019-05-20T22:10:13.020Z,15.20
2019-05-20T22:12:52.697Z,15.20
2019-05-20T22:15:34.474Z,15.20
2019-05-20T22:18:14.145Z,15.10
2019-05-20T22:20:53.117Z,15.00
2019-05-20T22:23:34.138Z,15.00
2019-05-20T22:26:15.373Z,15.00
2019-05-20T22:31:37.374Z,14.90
2019-05-20T22:33:52.873Z,14.80
2019-05-20T22:36:41.098Z,14.90
2019-05-20T22:39:20.752Z,14.80
2019-05-20T22:42:02.620Z,14.90
2019-05-20T22:44:41.749Z,14.70
2019-05-20T22:47:21.615Z,14.70
2019-05-20T22:50:01.474Z,14.60
2019-05-20T22:52:41.380Z,14.70
2019-05-20T22:55:21.315Z,14.70
2019-05-20T22:58:02.078Z,14.70
2019-05-20T23:00:43.744Z,14.70
2019-05-20T23:03:23.255Z,14.70
2019-05-20T23:06:03.380Z,14.70
2019-05-20T23:08:43.204Z,14.70
2019-05-20T23:11:24.045Z,14.70
2019-05-20T23:14:04.277Z,14.70
2019-05-20T23:16:43.294Z,14.60
2019-05-20T23:22:05.235Z,14.60
2019-05-20T23:27:29.133Z,14.60
2019-05-20T23:30:11.414Z,14.40
2019-05-20T23:32:53.155Z,14.40
2019-05-20T23:35:35.198Z,14.50
2019-05-20T23:38:14.905Z,14.50
2019-05-20T23:40:55.569Z,14.50
2019-05-20T23:46:17.419Z,14.50
2019-05-20T23:48:56.469Z,14.40
2019-05-20T23:51:37.291Z,14.40
2019-05-20T23:54:16.439Z,14.40
2019-05-20T23:56:57.345Z,14.40
2019-05-20T23:59:36.342Z,14.20
